Time;durP1;ratioP1;P1;durP2;ratioP2;P2;SDS_P1;SDS_P2;PMS_P1;PMS_P2;Temp;Humidity;BMP_temperature;BMP_pressure;BME280_temperature;BME280_humidity;BME280_pressure;Samples;Min_cycle;Max_cycle;Signal;HPM_P1;HPM_P2
2022/04/23 00:01:21;;;;;;;10.30;10.00;;;9.30;99.90;;;;;;5103953;28;20233;-82
2022/04/23 00:03:51;;;;;;;10.53;10.23;;;9.30;99.90;;;;;;5103965;28;20237;-83
2022/04/23 00:06:21;;;;;;;10.10;9.80;;;9.30;99.90;;;;;;5136219;27;20228;-82
2022/04/23 00:08:49;;;;;;;10.07;9.77;;;9.20;99.90;;;;;;5144790;27;20223;-83
2022/04/23 00:11:22;;;;;;;10.20;9.90;;;9.20;99.90;;;;;;5144723;27;20231;-82
2022/04/23 00:13:55;;;;;;;10.10;9.80;;;9.20;99.90;;;;;;5145209;27;20747;-82
2022/04/23 00:16:35;;;;;;;10.20;9.90;;;9.20;99.90;;;;;;5144923;27;20224;-83
2022/04/23 00:19:06;;;;;;;10.10;9.80;;;9.20;99.90;;;;;;5144612;27;20230;-82
2022/04/23 00:21:34;;;;;;;10.30;10.00;;;9.10;99.90;;;;;;5144626;27;20228;-82
2022/04/23 00:26:49;;;;;;;10.40;10.10;;;9.10;99.90;;;;;;5145105;27;20242;-83
2022/04/23 00:32:22;;;;;;;10.20;9.90;;;9.10;99.90;;;;;;5148522;27;20223;-82
2022/04/23 00:34:52;;;;;;;10.20;9.90;;;9.10;99.90;;;;;;5148045;27;20236;-83
2022/04/23 00:37:21;;;;;;;10.10;9.80;;;9.10;99.90;;;;;;5149025;27;20276;-82
2022/04/23 00:39:51;;;;;;;10.30;10.00;;;9.00;99.90;;;;;;5161314;27;20238;-82
2022/04/23 00:42:21;;;;;;;10.07;9.77;;;9.00;99.90;;;;;;5152577;27;20232;-82
2022/04/23 00:44:50;;;;;;;10.30;10.00;;;9.00;99.90;;;;;;5148569;27;20228;-82
2022/04/23 00:47:22;;;;;;;10.20;9.90;;;9.00;99.90;;;;;;5146569;27;20220;-82
2022/04/23 00:49:50;;;;;;;9.93;9.63;;;9.00;99.90;;;;;;5146332;27;20232;-82
2022/04/23 00:52:19;;;;;;;9.97;9.67;;;9.00;99.90;;;;;;5145769;27;20238;-82
2022/04/23 00:54:47;;;;;;;10.23;9.93;;;8.90;99.90;;;;;;5145841;27;20246;-82
2022/04/23 00:57:17;;;;;;;10.10;9.80;;;8.90;99.90;;;;;;5144805;27;20233;-82
2022/04/23 00:59:47;;;;;;;10.37;10.07;;;8.80;99.90;;;;;;5144793;27;20321;-82
2022/04/23 01:02:16;;;;;;;10.40;10.10;;;8.80;99.90;;;;;;5143540;27;20346;-82
2022/04/23 01:04:48;;;;;;;10.13;9.83;;;8.80;99.90;;;;;;5144558;27;20224;-82
2022/04/23 01:07:15;;;;;;;10.20;9.90;;;8.80;99.90;;;;;;5144273;27;20239;-83
2022/04/23 01:09:47;;;;;;;10.30;10.00;;;8.80;99.90;;;;;;5144761;27;20235;-84
2022/04/23 01:12:17;;;;;;;10.10;9.80;;;8.70;99.90;;;;;;5145271;27;20283;-83
2022/04/23 01:15:00;;;;;;;10.43;10.13;;;8.70;99.90;;;;;;5144528;27;20277;-82
2022/04/23 01:17:39;;;;;;;10.23;9.93;;;8.70;99.90;;;;;;5145076;27;20222;-84
2022/04/23 01:22:58;;;;;;;10.43;10.13;;;8.60;99.90;;;;;;5141889;27;20250;-82
2022/04/23 01:25:26;;;;;;;10.50;10.20;;;8.60;99.90;;;;;;5146636;27;20228;-82
2022/04/23 01:27:56;;;;;;;10.23;9.93;;;8.60;99.90;;;;;;5158049;27;20271;-84
2022/04/23 01:30:33;;;;;;;10.30;10.00;;;8.60;99.90;;;;;;5157048;27;20228;-82
2022/04/23 01:33:03;;;;;;;10.43;10.13;;;8.60;99.90;;;;;;5146330;27;20254;-83
2022/04/23 01:36:00;;;;;;;10.57;10.27;;;8.50;99.90;;;;;;5147031;27;20301;-82
2022/04/23 01:38:28;;;;;;;10.73;10.43;;;8.40;99.90;;;;;;5151668;27;20228;-82
2022/04/23 01:40:58;;;;;;;10.63;10.33;;;8.50;99.90;;;;;;5146270;27;20232;-82
2022/04/23 01:43:27;;;;;;;10.50;10.20;;;8.50;99.90;;;;;;5143239;27;20228;-82
2022/04/23 01:45:59;;;;;;;10.60;10.30;;;8.50;99.90;;;;;;5142581;27;20249;-82
2022/04/23 01:48:27;;;;;;;10.50;10.20;;;8.50;99.90;;;;;;5143124;27;20317;-82
2022/04/23 01:50:58;;;;;;;10.50;10.20;;;8.50;99.90;;;;;;5142591;27;20281;-82
2022/04/23 01:53:26;;;;;;;10.30;10.00;;;8.50;99.90;;;;;;5143170;27;20226;-82
2022/04/23 01:55:54;;;;;;;10.53;10.23;;;8.50;99.90;;;;;;5142556;27;20239;-82
2022/04/23 01:58:23;;;;;;;10.50;10.20;;;8.40;99.90;;;;;;5142265;27;20224;-82
2022/04/23 02:00:55;;;;;;;10.70;10.40;;;8.30;99.90;;;;;;5142194;27;20235;-82
2022/04/23 02:03:23;;;;;;;10.80;10.50;;;8.20;99.90;;;;;;5142961;27;20224;-82
2022/04/23 02:05:55;;;;;;;10.50;10.20;;;8.20;99.90;;;;;;5142719;27;20281;-82
2022/04/23 02:08:24;;;;;;;10.50;10.20;;;8.10;99.90;;;;;;5144757;27;20282;-81
2022/04/23 02:10:52;;;;;;;10.30;10.00;;;8.10;99.90;;;;;;5145563;27;20236;-81
2022/04/23 02:13:20;;;;;;;10.70;10.40;;;8.10;99.90;;;;;;5145931;27;20228;-82
2022/04/23 02:16:03;;;;;;;10.50;10.20;;;8.10;99.90;;;;;;5147201;27;20232;-82
2022/04/23 02:18:32;;;;;;;10.40;10.10;;;8.20;99.90;;;;;;5147375;27;20228;-82
2022/04/23 02:21:00;;;;;;;10.60;10.30;;;8.20;99.90;;;;;;5146029;27;20240;-82
2022/04/23 02:23:31;;;;;;;10.33;10.03;;;8.10;99.90;;;;;;5146818;27;20230;-82
2022/04/23 02:25:59;;;;;;;10.50;10.20;;;8.10;99.90;;;;;;5146452;27;20228;-82
2022/04/23 02:28:27;;;;;;;10.87;10.57;;;8.10;99.90;;;;;;5146413;27;20270;-82
2022/04/23 02:30:57;;;;;;;10.30;10.00;;;8.10;99.90;;;;;;5146308;27;20235;-81
2022/04/23 02:33:29;;;;;;;10.63;10.33;;;8.10;99.90;;;;;;5146063;27;20240;-81
2022/04/23 02:35:57;;;;;;;10.40;10.10;;;8.20;99.90;;;;;;5146934;27;20224;-82
2022/04/23 02:38:28;;;;;;;10.20;9.90;;;8.20;99.90;;;;;;5146491;27;20216;-82
2022/04/23 02:43:41;;;;;;;10.30;10.00;;;8.30;99.90;;;;;;5153658;27;20231;-82
2022/04/23 02:46:14;;;;;;;10.20;9.90;;;8.30;99.90;;;;;;5149839;27;20230;-82
2022/04/23 02:48:42;;;;;;;10.27;9.97;;;8.30;99.90;;;;;;5148185;27;20262;-82
2022/04/23 02:51:15;;;;;;;10.40;10.10;;;8.30;99.90;;;;;;5146667;27;20247;-82
2022/04/23 02:53:48;;;;;;;10.27;9.97;;;8.30;99.90;;;;;;5146630;27;20232;-82
2022/04/23 02:56:21;;;;;;;10.40;10.10;;;8.30;99.90;;;;;;5146189;27;20228;-82
2022/04/23 03:01:34;;;;;;;10.10;9.80;;;8.30;99.90;;;;;;5149961;27;20231;-82
2022/04/23 03:04:04;;;;;;;10.20;9.90;;;8.20;99.90;;;;;;5161551;27;20224;-82
2022/04/23 03:06:33;;;;;;;10.20;9.90;;;8.30;99.90;;;;;;5149391;27;20239;-82
2022/04/23 03:09:02;;;;;;;9.93;9.63;;;8.30;99.90;;;;;;5148249;27;20254;-82
2022/04/23 03:12:23;;;;;;;10.00;9.70;;;8.30;99.90;;;;;;5147731;27;20254;-83
2022/04/23 03:17:56;;;;;;;10.20;9.90;;;8.10;99.90;;;;;;5145437;27;20216;-82
2022/04/23 03:23:08;;;;;;;10.63;10.33;;;8.00;99.90;;;;;;5145112;27;20216;-83
2022/04/23 03:28:25;;;;;;;10.50;10.20;;;7.90;99.90;;;;;;5145086;27;20235;-83
2022/04/23 03:30:57;;;;;;;10.50;10.20;;;7.90;99.90;;;;;;5145716;27;20320;-83
2022/04/23 03:33:27;;;;;;;10.70;10.40;;;7.90;99.90;;;;;;5145299;27;20220;-82
2022/04/23 03:36:01;;;;;;;10.60;10.30;;;7.80;99.90;;;;;;5145314;27;20239;-83
2022/04/23 03:41:10;;;;;;;10.30;10.00;;;7.80;99.90;;;;;;5140741;27;20228;-83
2022/04/23 03:43:38;;;;;;;10.53;10.23;;;7.80;99.90;;;;;;5144903;27;20224;-82
2022/04/23 03:48:54;;;;;;;11.00;10.70;;;7.80;99.90;;;;;;5143321;27;20231;-83
2022/04/23 03:51:25;;;;;;;10.90;10.60;;;7.80;99.90;;;;;;5144046;27;20269;-84
2022/04/23 03:53:55;;;;;;;10.83;10.53;;;7.80;99.90;;;;;;5144487;27;20216;-84
2022/04/23 03:56:25;;;;;;;10.80;10.50;;;7.80;99.90;;;;;;5144223;27;20238;-83
2022/04/23 03:58:53;;;;;;;10.97;10.67;;;7.70;99.90;;;;;;5144595;27;20220;-83
2022/04/23 04:04:17;;;;;;;10.63;10.33;;;7.80;99.90;;;;;;5142121;27;20224;-84
2022/04/23 04:06:46;;;;;;;10.80;10.50;;;7.80;99.90;;;;;;5144908;27;20235;-84
2022/04/23 04:09:15;;;;;;;10.97;10.67;;;7.80;99.90;;;;;;5144055;27;20254;-84
2022/04/23 04:17:25;;;;;;;11.10;10.80;;;7.70;99.90;;;;;;5149305;27;20259;-83
2022/04/23 04:19:58;;;;;;;10.70;10.40;;;7.70;99.90;;;;;;5157458;27;20232;-85
2022/04/23 04:22:27;;;;;;;10.77;10.47;;;7.70;99.90;;;;;;5159933;27;20224;-83
2022/04/23 04:24:56;;;;;;;11.00;10.70;;;7.70;99.90;;;;;;5160576;27;20208;-84
2022/04/23 04:27:25;;;;;;;11.17;10.87;;;7.70;99.90;;;;;;5155458;27;20296;-83
2022/04/23 04:29:55;;;;;;;11.03;10.73;;;7.70;99.90;;;;;;5148151;27;20240;-84
2022/04/23 04:32:44;;;;;;;10.90;10.60;;;7.60;99.90;;;;;;5148686;27;20237;-84
2022/04/23 04:35:12;;;;;;;11.13;10.83;;;7.60;99.90;;;;;;5146767;27;20711;-83
2022/04/23 04:37:41;;;;;;;11.00;10.70;;;7.60;99.90;;;;;;5144811;27;20676;-83
2022/04/23 04:40:11;;;;;;;10.73;10.43;;;7.70;99.90;;;;;;5143493;27;20244;-83
2022/04/23 04:42:41;;;;;;;10.77;10.47;;;7.70;99.90;;;;;;5143027;27;20220;-84
2022/04/23 04:45:10;;;;;;;10.97;10.67;;;7.80;99.90;;;;;;5143812;27;20239;-84
2022/04/23 04:47:41;;;;;;;10.80;10.50;;;7.80;99.90;;;;;;5143221;27;20234;-83
2022/04/23 04:50:10;;;;;;;10.90;10.60;;;7.80;99.90;;;;;;5143067;27;20236;-84
2022/04/23 04:52:39;;;;;;;10.60;10.30;;;7.80;99.90;;;;;;5142949;27;20232;-84
2022/04/23 04:55:10;;;;;;;10.70;10.40;;;7.80;99.90;;;;;;5143350;27;20212;-84
2022/04/23 04:57:45;;;;;;;10.73;10.43;;;7.80;99.90;;;;;;5143602;27;20220;-83
2022/04/23 05:00:15;;;;;;;10.80;10.50;;;7.90;99.90;;;;;;5159617;22;20232;-81
2022/04/23 05:02:44;;;;;;;10.83;10.53;;;7.90;99.90;;;;;;5120410;28;20318;-81
2022/04/23 05:05:12;;;;;;;10.60;10.30;;;7.90;99.90;;;;;;5120926;28;20236;-82
2022/04/23 05:07:39;;;;;;;10.70;10.40;;;7.90;99.90;;;;;;5139877;27;20313;-82
2022/04/23 05:10:09;;;;;;;10.53;10.23;;;7.90;99.90;;;;;;5143021;27;20240;-82
2022/04/23 05:12:36;;;;;;;11.10;10.80;;;7.90;99.90;;;;;;5142130;27;20228;-82
2022/04/23 05:15:05;;;;;;;10.97;10.67;;;7.90;99.90;;;;;;5142120;27;20228;-82
2022/04/23 05:17:33;;;;;;;11.13;10.83;;;8.00;99.90;;;;;;5141875;27;20258;-81
2022/04/23 05:20:02;;;;;;;11.00;10.70;;;8.00;99.90;;;;;;5136615;27;20237;-82
2022/04/23 05:22:31;;;;;;;10.93;10.63;;;8.10;99.90;;;;;;5138264;27;20236;-82
2022/04/23 05:24:58;;;;;;;11.23;10.93;;;8.10;99.90;;;;;;5141198;27;20230;-82
2022/04/23 05:27:27;;;;;;;10.90;10.60;;;8.20;99.90;;;;;;5141640;27;20227;-82
2022/04/23 05:29:54;;;;;;;10.97;10.67;;;8.30;99.90;;;;;;5140909;27;20232;-82
2022/04/23 05:32:22;;;;;;;11.00;10.70;;;8.40;99.90;;;;;;5153131;27;20230;-81
2022/04/23 05:34:50;;;;;;;11.30;11.00;;;8.40;99.90;;;;;;5145719;27;20281;-82
2022/04/23 05:37:19;;;;;;;10.63;10.33;;;8.50;99.90;;;;;;5143238;27;20237;-82
2022/04/23 05:39:47;;;;;;;10.73;10.43;;;8.60;99.90;;;;;;5143325;27;20264;-82
2022/04/23 05:42:14;;;;;;;10.93;10.63;;;8.60;99.90;;;;;;5144681;27;20227;-82
2022/04/23 05:44:42;;;;;;;11.00;10.70;;;8.70;99.90;;;;;;5146171;27;20224;-82
2022/04/23 05:47:10;;;;;;;11.10;10.80;;;8.80;99.90;;;;;;5146312;27;20232;-82
2022/04/23 05:49:42;;;;;;;10.90;10.60;;;8.90;99.90;;;;;;5146541;27;20240;-82
2022/04/23 05:52:10;;;;;;;10.67;10.37;;;9.00;99.90;;;;;;5148888;27;20224;-82
2022/04/23 05:54:40;;;;;;;10.60;10.30;;;9.10;99.90;;;;;;5139640;27;20270;-81
2022/04/23 05:57:08;;;;;;;10.47;10.17;;;9.10;99.90;;;;;;5139540;28;20232;-82
2022/04/23 05:59:35;;;;;;;10.60;10.30;;;9.10;99.90;;;;;;5139717;28;20228;-82
2022/04/23 06:02:03;;;;;;;10.73;10.43;;;9.20;99.90;;;;;;5138753;28;20323;-83
2022/04/23 06:04:32;;;;;;;10.67;10.37;;;9.30;99.90;;;;;;5140204;28;20406;-82
2022/04/23 06:07:00;;;;;;;10.77;10.47;;;9.30;99.90;;;;;;5142635;27;20220;-83
2022/04/23 06:09:27;;;;;;;10.50;10.20;;;9.50;99.90;;;;;;5142737;27;20254;-82
2022/04/23 06:11:57;;;;;;;10.27;9.97;;;9.50;99.90;;;;;;5142452;27;20225;-82
2022/04/23 06:14:24;;;;;;;10.57;10.27;;;9.50;99.90;;;;;;5143248;27;20251;-81
2022/04/23 06:16:52;;;;;;;10.30;10.00;;;9.60;99.90;;;;;;5143335;27;20209;-82
2022/04/23 06:19:20;;;;;;;10.20;9.90;;;9.60;99.90;;;;;;5143472;27;20254;-81
2022/04/23 06:21:47;;;;;;;10.00;9.70;;;9.60;99.90;;;;;;5142026;27;20225;-81
2022/04/23 06:24:15;;;;;;;9.93;9.63;;;9.70;99.90;;;;;;5142023;27;20360;-82
2022/04/23 06:26:43;;;;;;;10.07;9.77;;;9.80;99.90;;;;;;5140046;27;20237;-81
2022/04/23 06:29:12;;;;;;;10.37;10.07;;;9.80;99.90;;;;;;5139302;28;20257;-82
2022/04/23 06:31:40;;;;;;;10.23;9.93;;;9.90;99.90;;;;;;5135852;28;20236;-81
2022/04/23 06:34:08;;;;;;;10.50;10.20;;;9.90;99.90;;;;;;5139834;28;20233;-81
2022/04/23 06:36:36;;;;;;;10.40;10.10;;;9.90;99.90;;;;;;5134593;28;20233;-81
2022/04/23 06:39:04;;;;;;;10.30;10.00;;;10.00;99.90;;;;;;5132796;28;20221;-82
2022/04/23 06:41:32;;;;;;;10.40;10.10;;;10.10;99.90;;;;;;5133603;28;20229;-82
2022/04/23 06:43:59;;;;;;;10.20;9.90;;;10.20;99.90;;;;;;5138532;27;20229;-83
2022/04/23 06:46:29;;;;;;;10.17;9.87;;;10.40;99.90;;;;;;5141495;27;20495;-81
2022/04/23 06:48:56;;;;;;;10.40;10.10;;;10.50;99.90;;;;;;5138575;28;20224;-82
2022/04/23 06:51:26;;;;;;;10.90;10.60;;;10.60;99.90;;;;;;5131669;28;20410;-86
2022/04/23 06:53:59;;;;;;;10.80;10.50;;;10.80;99.90;;;;;;5124486;27;20225;-85
2022/04/23 06:56:27;;;;;;;10.87;10.57;;;11.00;99.90;;;;;;5126589;28;20237;-85
2022/04/23 06:58:57;;;;;;;10.13;9.83;;;11.20;99.90;;;;;;5125988;28;20243;-85
2022/04/23 07:01:26;;;;;;;10.33;10.03;;;11.30;99.90;;;;;;5125032;28;20241;-85
2022/04/23 07:03:57;;;;;;;10.30;10.00;;;11.40;99.90;;;;;;5126162;28;20253;-82
2022/04/23 07:06:25;;;;;;;10.10;9.80;;;11.50;99.90;;;;;;5126748;28;20712;-85
2022/04/23 07:08:53;;;;;;;10.20;9.90;;;11.60;99.90;;;;;;5127447;28;20224;-84
2022/04/23 07:11:26;;;;;;;10.17;9.87;;;11.60;99.90;;;;;;5128117;28;20248;-83
2022/04/23 07:13:55;;;;;;;10.03;9.73;;;11.60;99.90;;;;;;5133693;28;20228;-83
2022/04/23 07:16:23;;;;;;;10.10;9.80;;;11.60;99.90;;;;;;5132591;28;20225;-84
2022/04/23 07:18:54;;;;;;;10.07;9.77;;;11.70;99.90;;;;;;5137406;28;20224;-84
2022/04/23 07:21:24;;;;;;;10.43;10.13;;;11.90;99.90;;;;;;5131717;28;20229;-84
2022/04/23 07:24:05;;;;;;;10.30;10.00;;;12.10;99.90;;;;;;5134685;27;20211;-84
2022/04/23 07:26:36;;;;;;;10.47;10.17;;;12.30;99.90;;;;;;5141311;27;20276;-85
2022/04/23 07:29:07;;;;;;;10.60;10.30;;;12.40;99.90;;;;;;5142380;27;20217;-84
2022/04/23 07:31:36;;;;;;;10.20;9.90;;;12.60;99.90;;;;;;5141791;27;20225;-83
2022/04/23 07:39:37;;;;;;;10.17;9.87;;;12.50;99.90;;;;;;5143575;27;20248;-84
2022/04/23 07:42:07;;;;;;;10.20;9.90;;;12.40;99.90;;;;;;5142682;27;20225;-84
2022/04/23 07:44:36;;;;;;;10.17;9.87;;;12.40;99.90;;;;;;5142619;27;20209;-83
2022/04/23 07:47:08;;;;;;;10.30;10.00;;;12.30;99.90;;;;;;5140279;27;20217;-83
2022/04/23 07:49:36;;;;;;;9.80;9.50;;;12.20;99.90;;;;;;5124995;28;20229;-82
2022/04/23 07:52:06;;;;;;;10.03;9.73;;;12.10;99.90;;;;;;5124778;28;20225;-83
2022/04/23 07:54:37;;;;;;;10.30;10.00;;;12.10;99.90;;;;;;5124172;28;20220;-81
2022/04/23 07:57:07;;;;;;;10.20;9.90;;;12.10;99.90;;;;;;5123556;28;20263;-82
2022/04/23 07:59:35;;;;;;;10.10;9.80;;;12.00;99.90;;;;;;5122734;28;20627;-82
2022/04/23 08:02:03;;;;;;;10.20;9.90;;;11.90;99.90;;;;;;5121752;28;20245;-81
2022/04/23 08:04:30;;;;;;;10.10;9.80;;;11.90;99.90;;;;;;5114633;28;20222;-81
2022/04/23 08:06:58;;;;;;;10.00;9.70;;;11.90;99.90;;;;;;5115291;28;20251;-82
2022/04/23 08:09:28;;;;;;;9.90;9.60;;;11.90;99.90;;;;;;5113707;27;20299;-83
2022/04/23 08:11:56;;;;;;;10.07;9.77;;;11.90;99.90;;;;;;5101528;28;20244;-83
2022/04/23 08:14:24;;;;;;;10.13;9.83;;;11.90;99.90;;;;;;5102511;28;20310;-83
2022/04/23 08:16:54;;;;;;;10.10;9.80;;;12.00;99.90;;;;;;5102421;28;20233;-85
2022/04/23 08:19:23;;;;;;;9.97;9.67;;;12.00;99.90;;;;;;5101788;28;20236;-86
2022/04/23 08:21:51;;;;;;;10.37;10.07;;;12.10;99.90;;;;;;5102382;28;20233;-83
2022/04/23 08:24:19;;;;;;;9.73;9.43;;;12.10;99.90;;;;;;5102313;28;20213;-83
2022/04/23 08:26:48;;;;;;;9.93;9.63;;;12.10;99.90;;;;;;5102687;28;20264;-83
2022/04/23 08:32:01;;;;;;;9.87;9.57;;;12.20;99.90;;;;;;5101615;28;20238;-83
2022/04/23 08:34:28;;;;;;;9.97;9.67;;;12.30;99.90;;;;;;5101656;28;20218;-84
2022/04/23 08:36:57;;;;;;;10.07;9.77;;;12.20;99.90;;;;;;5100629;28;20236;-84
2022/04/23 08:39:25;;;;;;;10.20;9.90;;;12.30;99.90;;;;;;5101476;28;20241;-84
2022/04/23 08:41:54;;;;;;;10.00;9.70;;;12.30;99.90;;;;;;5100340;28;20225;-84
2022/04/23 08:44:23;;;;;;;9.80;9.50;;;12.40;99.90;;;;;;5103282;28;20209;-84
2022/04/23 08:46:55;;;;;;;10.30;10.00;;;12.40;99.90;;;;;;5101998;28;20244;-84
2022/04/23 08:49:32;;;;;;;10.27;9.97;;;12.50;99.90;;;;;;5112272;28;20287;-85
2022/04/23 08:52:15;;;;;;;10.50;10.20;;;12.50;99.90;;;;;;5110365;28;20284;-84
2022/04/23 08:54:43;;;;;;;10.60;10.30;;;12.50;99.90;;;;;;5111206;28;20279;-84
2022/04/23 08:57:13;;;;;;;10.50;10.20;;;12.40;99.90;;;;;;5112210;28;20279;-84
2022/04/23 08:59:44;;;;;;;10.60;10.30;;;12.30;99.90;;;;;;5108748;28;20236;-84
2022/04/23 09:02:13;;;;;;;10.30;10.00;;;12.20;99.90;;;;;;5104574;28;20252;-85
2022/04/23 09:04:42;;;;;;;10.27;9.97;;;12.00;99.90;;;;;;5104765;28;20221;-84
2022/04/23 09:07:20;;;;;;;10.63;10.33;;;12.00;99.90;;;;;;5103642;28;20233;-83
2022/04/23 09:09:53;;;;;;;10.57;10.27;;;12.10;99.90;;;;;;5101628;28;20249;-84
2022/04/23 09:12:24;;;;;;;10.37;10.07;;;12.10;99.90;;;;;;5100792;28;20264;-84
2022/04/23 09:14:53;;;;;;;10.50;10.20;;;12.10;99.90;;;;;;5102454;28;20705;-83
2022/04/23 09:25:50;;;;;;;10.20;9.90;;;11.90;99.90;;;;;;5102615;28;20681;-80
2022/04/23 09:28:23;;;;;;;10.40;10.10;;;11.80;99.90;;;;;;5102142;28;20225;-84
2022/04/23 09:30:55;;;;;;;10.30;10.00;;;11.80;99.90;;;;;;5102066;28;20241;-84
2022/04/23 09:33:28;;;;;;;10.20;9.90;;;11.90;99.90;;;;;;5102759;28;20225;-85
2022/04/23 09:35:57;;;;;;;9.93;9.63;;;11.80;99.90;;;;;;5112613;28;20221;-86
2022/04/23 09:38:26;;;;;;;9.80;9.50;;;11.80;99.90;;;;;;5106379;28;20233;-85
2022/04/23 09:40:55;;;;;;;10.13;9.83;;;11.80;99.90;;;;;;5102668;28;20229;-84
2022/04/23 09:43:30;;;;;;;10.20;9.90;;;11.90;99.90;;;;;;5102477;28;20256;-81
2022/04/23 09:46:03;;;;;;;10.20;9.90;;;12.00;99.90;;;;;;5100772;28;20221;-82
2022/04/23 09:48:32;;;;;;;10.10;9.80;;;12.00;99.90;;;;;;5099486;28;20241;-82
2022/04/23 09:51:00;;;;;;;9.97;9.67;;;12.10;99.90;;;;;;5098827;28;20260;-82
2022/04/23 09:53:28;;;;;;;10.20;9.90;;;12.10;99.90;;;;;;5099456;28;20230;-82
2022/04/23 09:56:00;;;;;;;10.13;9.83;;;12.20;99.90;;;;;;5100618;28;20225;-81
2022/04/23 09:58:30;;;;;;;10.13;9.83;;;12.40;99.90;;;;;;5100226;28;20740;-81
2022/04/23 10:00:59;;;;;;;10.10;9.80;;;12.40;99.90;;;;;;5098611;28;20276;-84
2022/04/23 10:03:30;;;;;;;10.07;9.77;;;12.50;99.90;;;;;;5100832;28;20229;-83
2022/04/23 10:05:59;;;;;;;10.00;9.70;;;12.50;99.90;;;;;;5100046;28;20267;-83
2022/04/23 10:08:29;;;;;;;10.30;10.00;;;12.50;99.90;;;;;;5099718;28;20232;-84
2022/04/23 10:11:01;;;;;;;10.17;9.87;;;12.60;99.90;;;;;;5100011;28;20233;-83
2022/04/23 10:13:32;;;;;;;10.27;9.97;;;12.70;99.90;;;;;;5100458;28;20241;-83
2022/04/23 10:16:00;;;;;;;10.30;10.00;;;12.70;99.90;;;;;;5113634;28;20236;-82
2022/04/23 10:18:27;;;;;;;10.03;9.73;;;12.70;99.90;;;;;;5110689;28;20230;-82
2022/04/23 10:21:02;;;;;;;10.20;9.90;;;12.70;99.90;;;;;;5116349;28;20233;-82
2022/04/23 10:23:52;;;;;;;9.80;9.50;;;12.80;99.90;;;;;;5126919;28;20234;-84
2022/04/23 10:26:35;;;;;;;9.73;9.43;;;12.80;99.90;;;;;;5124073;28;20252;-83
2022/04/23 10:29:09;;;;;;;9.80;9.50;;;12.80;99.90;;;;;;5123110;28;20233;-82
2022/04/23 10:31:37;;;;;;;10.03;9.73;;;12.80;99.90;;;;;;5123463;28;20345;-83
2022/04/23 10:34:07;;;;;;;10.07;9.77;;;12.80;99.90;;;;;;5123951;28;20243;-81
2022/04/23 10:36:35;;;;;;;10.27;9.97;;;13.00;99.90;;;;;;5123151;28;20317;-83
2022/04/23 10:39:23;;;;;;;10.00;9.70;;;13.00;99.90;;;;;;5132525;27;20224;-83
2022/04/23 10:41:53;;;;;;;10.13;9.83;;;13.10;99.90;;;;;;5139488;28;20233;-83
2022/04/23 10:44:25;;;;;;;10.27;9.97;;;13.10;99.90;;;;;;5133813;28;20247;-82
2022/04/23 10:46:56;;;;;;;10.30;10.00;;;13.20;99.90;;;;;;5134666;28;20251;-81
2022/04/23 10:49:27;;;;;;;10.17;9.87;;;13.30;99.90;;;;;;5134167;28;20291;-82
2022/04/23 10:51:57;;;;;;;9.90;9.60;;;13.40;99.90;;;;;;5140784;27;20221;-82
2022/04/23 10:54:55;;;;;;;10.27;9.97;;;13.40;99.90;;;;;;5140965;28;20246;-82
2022/04/23 10:57:23;;;;;;;10.50;10.20;;;13.40;99.90;;;;;;5137055;28;20220;-82
2022/04/23 10:59:53;;;;;;;10.30;10.00;;;13.50;99.90;;;;;;5133125;28;20233;-81
2022/04/23 11:02:48;;;;;;;10.60;10.30;;;13.50;99.90;;;;;;5174013;22;20240;-84
2022/04/23 11:14:58;;;;;;;10.30;10.00;;;13.80;99.90;;;;;;5097643;28;20313;-87
2022/04/23 11:17:58;;;;;;;10.47;10.17;;;13.90;99.90;;;;;;5091287;28;20246;-86
2022/04/23 11:30:32;;;;;;;10.33;10.03;;;13.90;99.90;;;;;;4983829;28;20236;-88
2022/04/23 11:33:25;;;;;;;10.33;10.03;;;13.80;99.90;;;;;;4990046;28;20228;-86
2022/04/23 11:36:12;;;;;;;10.13;9.83;;;13.90;99.90;;;;;;5020426;28;20225;-86
2022/04/23 11:39:38;;;;;;;10.30;10.00;;;13.90;99.90;;;;;;5102773;28;20252;-85
2022/04/23 11:43:21;;;;;;;10.23;9.93;;;14.30;99.90;;;;;;5120874;28;20222;-86
2022/04/23 11:49:52;;;;;;;9.98;9.68;;;15.20;99.90;;;;;;5122134;28;20185;-86
2022/04/23 11:52:30;;;;;;;9.90;9.60;;;15.40;99.90;;;;;;5120838;28;20240;-86
2022/04/23 11:55:40;;;;;;;;;;;;;;;;;;;;;
2022/04/23 11:58:39;;;;;;;10.13;9.82;;;15.40;99.90;;;;;;5119305;28;20210;-85
2022/04/23 12:14:45;;;;;;;10.32;10.02;;;15.10;99.90;;;;;;5086007;28;20228;-85
2022/04/23 12:17:34;;;;;;;10.40;10.10;;;15.00;99.90;;;;;;5120469;28;20232;-86
2022/04/23 14:36:06;;;;;;;10.60;10.30;;;16.10;99.90;;;;;;4932739;28;20297;-87
2022/04/23 14:39:13;;;;;;;;;;;;;;;;;;;;;
2022/04/23 14:45:49;;;;;;;10.32;10.02;;;16.90;99.90;;;;;;4969505;28;20281;-86
2022/04/23 14:49:29;;;;;;;10.20;9.90;;;17.00;99.90;;;;;;4971601;28;20222;-87
2022/04/23 15:00:34;;;;;;;10.20;9.90;;;17.70;99.90;;;;;;4970266;28;20247;-86
2022/04/23 15:10:30;;;;;;;10.10;9.80;;;17.60;99.90;;;;;;5040467;28;20200;-87
2022/04/23 15:27:08;;;;;;;10.18;9.88;;;16.90;99.90;;;;;;4971830;28;20259;-86
2022/04/23 15:29:43;;;;;;;9.80;9.50;;;16.70;99.90;;;;;;5007747;28;20219;-87
2022/04/23 15:32:23;;;;;;;10.02;9.73;;;16.60;99.90;;;;;;5039498;28;20222;-86
2022/04/23 15:43:00;;;;;;;9.82;9.52;;;16.70;99.90;;;;;;5053813;22;20231;-86
2022/04/23 15:49:20;;;;;;;9.80;9.50;;;16.40;99.90;;;;;;5020776;28;20227;-87
2022/04/23 15:57:47;;;;;;;9.50;9.20;;;16.20;99.90;;;;;;5066270;28;20223;-87
2022/04/23 16:07:28;;;;;;;;;;;;;;;;;;;;;
2022/04/23 17:04:03;;;;;;;9.95;9.65;;;15.40;99.90;;;;;;4998107;28;20323;-82
2022/04/23 17:06:32;;;;;;;9.90;9.60;;;15.40;99.90;;;;;;4999912;28;20312;-83
2022/04/23 17:09:00;;;;;;;9.98;9.68;;;15.40;99.90;;;;;;5000694;28;20233;-84
2022/04/23 17:11:29;;;;;;;9.82;9.52;;;15.40;99.90;;;;;;5000272;28;20221;-86
2022/04/23 17:13:57;;;;;;;10.07;9.77;;;15.40;99.90;;;;;;5001049;28;20810;-84
2022/04/23 17:16:25;;;;;;;9.88;9.57;;;15.30;99.90;;;;;;5002432;28;20224;-84
2022/04/23 17:18:53;;;;;;;9.70;9.40;;;15.20;99.90;;;;;;5000616;28;20224;-84
2022/04/23 17:21:23;;;;;;;9.80;9.50;;;15.20;99.90;;;;;;5000662;28;20292;-84
2022/04/23 17:23:51;;;;;;;9.93;9.63;;;15.10;99.90;;;;;;5000735;28;20233;-84
2022/04/23 17:26:20;;;;;;;9.85;9.55;;;15.00;99.90;;;;;;5009358;28;20252;-85
2022/04/23 17:28:51;;;;;;;9.95;9.65;;;14.90;99.90;;;;;;5006491;28;20320;-85
2022/04/23 17:31:19;;;;;;;9.68;9.38;;;14.90;99.90;;;;;;5002830;28;20228;-85
2022/04/23 17:33:47;;;;;;;10.02;9.73;;;14.80;99.90;;;;;;5001970;28;20241;-85
2022/04/23 17:36:15;;;;;;;10.10;9.80;;;14.80;99.90;;;;;;5002457;28;20252;-85
2022/04/23 17:38:57;;;;;;;9.95;9.65;;;14.80;99.90;;;;;;5005185;28;20232;-85
2022/04/23 17:41:27;;;;;;;10.30;10.00;;;14.80;99.90;;;;;;5009796;28;20244;-85
2022/04/23 17:43:57;;;;;;;10.23;9.93;;;14.70;99.90;;;;;;5017074;28;20228;-85
2022/04/23 17:46:25;;;;;;;10.13;9.82;;;14.60;99.90;;;;;;5010863;28;21103;-85
2022/04/23 17:48:53;;;;;;;10.18;9.88;;;14.60;99.90;;;;;;5006159;28;20221;-85
2022/04/23 17:51:21;;;;;;;10.00;9.70;;;14.50;99.90;;;;;;5007009;28;20259;-85
2022/04/23 17:53:52;;;;;;;10.20;9.90;;;14.50;99.90;;;;;;5005100;28;20284;-85
2022/04/23 17:56:20;;;;;;;10.13;9.83;;;14.40;99.90;;;;;;5003965;28;20248;-84
2022/04/23 17:58:48;;;;;;;10.40;10.10;;;14.40;99.90;;;;;;5002970;28;20299;-85
2022/04/23 18:09:35;;;;;;;10.47;10.17;;;14.30;99.90;;;;;;5005064;28;20212;-84
2022/04/23 18:12:03;;;;;;;10.23;9.93;;;14.20;99.90;;;;;;5004397;28;20275;-85
2022/04/23 18:14:34;;;;;;;10.40;10.10;;;14.20;99.90;;;;;;5004564;28;20237;-84
2022/04/23 18:17:05;;;;;;;10.17;9.87;;;14.10;99.90;;;;;;5003843;28;20232;-84
2022/04/23 18:19:34;;;;;;;10.10;9.80;;;14.10;99.90;;;;;;5003460;28;20229;-84
2022/04/23 18:22:28;;;;;;;10.20;9.90;;;14.10;99.90;;;;;;5003200;28;20248;-85
2022/04/23 18:24:59;;;;;;;10.10;9.80;;;14.00;99.90;;;;;;5005074;28;20263;-84
2022/04/23 18:27:30;;;;;;;10.27;9.97;;;14.00;99.90;;;;;;5004393;28;20235;-85
2022/04/23 18:29:58;;;;;;;9.90;9.60;;;14.00;99.90;;;;;;5005905;28;20229;-84
2022/04/23 18:32:25;;;;;;;9.97;9.67;;;14.00;99.90;;;;;;5006245;28;20229;-84
2022/04/23 18:34:55;;;;;;;10.10;9.80;;;14.00;99.90;;;;;;5003904;28;20225;-83
2022/04/23 18:37:23;;;;;;;10.10;9.80;;;14.00;99.90;;;;;;5004776;28;20229;-84
2022/04/23 18:40:05;;;;;;;9.90;9.60;;;13.90;99.90;;;;;;5004529;28;20236;-86
2022/04/23 18:42:42;;;;;;;10.03;9.73;;;13.80;99.90;;;;;;5003223;28;20322;-84
2022/04/23 18:48:03;;;;;;;10.02;9.73;;;13.70;99.90;;;;;;5002004;28;20438;-82
2022/04/23 18:50:33;;;;;;;10.20;9.90;;;13.70;99.90;;;;;;5001076;28;20511;-85
2022/04/23 18:53:04;;;;;;;10.00;9.70;;;13.70;99.90;;;;;;5002176;28;20243;-84
2022/04/23 18:55:34;;;;;;;10.10;9.80;;;13.70;99.90;;;;;;5002944;28;20235;-84